Norbeck, South Dakota
Current Conditions -  °F | °C
As of 6:53 AM on Saturday 01 Nov 2014 (Local Time) from KABR Reporting Station
Clear Clear  
Wind Chill: 18°   Ceiling: Unl
Heat Index: 32°   Visibility: 10mi
Dew Point: 17°   Wind: 30mph
Humidity: 54%   Direction: 170°S
Pressure: 30.13"   Gusts: 36mph
Location:  45.0672°N, 99.0996°W
Report Text: KABR 011153Z AUTO 17026G31KT 10SM CLR 00/M08 A3013 RMK AO2 PK WND 16033/1132 SLP220 T00001083 10011 21011 57022
Loading
Personal Weather Stations






























Interactive Weather Map
Tropical Storm Tracking
New forecast layout! Learn more

10-Day Weather Forecast

Advertisements
Track Severe Weather on mobile